Saint Marie, Montana
Current Conditions -  °F | °C
As of 9:53 PM on Friday 19 Dec 2014 (Local Time) from KGGW Reporting Station
Overcast Overcast  
Wind Chill: 20°   Ceiling: 9500
Heat Index: 30°   Visibility: 10mi
Dew Point: 25°   Wind: 13mph
Humidity: 82%   Direction: 100°E
Pressure: 29.82"   Gusts: NA
Location:  48.4°N, 106.55°W
Report Text: KGGW 200453Z AUTO 10011KT 10SM SCT075 OVC095 M01/M04 A2982 RMK AO2 SLP128 T10111039
Loading
Personal Weather Stations






























Interactive Weather Map New forecast layout! Learn more

10-Day Weather Forecast

Advertisements
Track Severe Weather on mobile